createdAt,value
2022-08-03T00:01:27.265Z,34.53
2022-08-03T00:03:53.885Z,36.95
2022-08-03T00:06:20.405Z,36.40
2022-08-03T00:08:47.039Z,34.92
2022-08-03T00:11:13.689Z,34.88
2022-08-03T00:13:40.310Z,39.65
2022-08-03T00:16:07.007Z,33.30
2022-08-03T00:18:33.713Z,36.13
2022-08-03T00:21:00.240Z,32.95
2022-08-03T00:23:31.747Z,38.00
2022-08-03T00:26:13.485Z,35.67
2022-08-03T00:28:40.252Z,38.60
2022-08-03T00:31:07.083Z,37.42
2022-08-03T00:33:59.074Z,39.60
2022-08-03T00:36:20.614Z,35.00
2022-08-03T00:38:47.191Z,34.65
2022-08-03T00:41:15.698Z,35.20
2022-08-03T00:43:42.441Z,40.42
2022-08-03T00:46:09.220Z,41.50
2022-08-03T00:48:35.797Z,43.22
2022-08-03T00:51:02.972Z,39.92
2022-08-03T00:53:29.939Z,38.70
2022-08-03T00:55:56.665Z,42.20
2022-08-03T00:58:24.221Z,40.33
2022-08-03T01:00:51.079Z,34.55
2022-08-03T01:03:17.884Z,43.42
2022-08-03T01:06:01.047Z,36.88
2022-08-03T01:08:39.852Z,44.85
2022-08-03T01:12:01.115Z,35.63
2022-08-03T01:14:37.297Z,34.20
2022-08-03T01:17:09.836Z,36.88
2022-08-03T01:19:49.629Z,39.35
2022-08-03T01:22:35.312Z,40.13
2022-08-03T01:25:22.845Z,40.63
2022-08-03T01:28:17.486Z,40.33
2022-08-03T01:30:46.675Z,36.90
2022-08-03T01:33:20.116Z,39.90
2022-08-03T01:36:13.653Z,40.60
2022-08-03T01:38:48.156Z,37.85
2022-08-03T01:41:18.760Z,36.72
2022-08-03T01:44:27.241Z,40.00
2022-08-03T01:46:37.949Z,44.60
2022-08-03T01:49:09.168Z,42.58
2022-08-03T01:51:57.865Z,39.17
2022-08-03T01:54:27.096Z,38.78
2022-08-03T01:56:56.669Z,48.30
2022-08-03T01:59:26.420Z,36.75
2022-08-03T02:02:32.118Z,41.17
2022-08-03T02:04:43.699Z,42.40
2022-08-03T02:07:11.875Z,42.33
2022-08-03T02:09:41.470Z,43.20
2022-08-03T02:12:14.044Z,43.90
2022-08-03T02:14:43.464Z,43.10
2022-08-03T02:17:11.163Z,42.78
2022-08-03T02:19:38.870Z,39.95
2022-08-03T02:22:10.195Z,41.03
2022-08-03T02:24:37.036Z,38.90
2022-08-03T02:27:10.682Z,44.13
2022-08-03T02:29:40.971Z,42.40
2022-08-03T02:32:15.471Z,39.17
2022-08-03T02:34:46.255Z,43.08
2022-08-03T02:37:13.518Z,42.38
2022-08-03T02:39:42.545Z,43.35
2022-08-03T02:42:12.195Z,46.67
2022-08-03T02:44:43.741Z,50.47
2022-08-03T02:49:41.137Z,44.55
2022-08-03T02:52:15.483Z,44.60
2022-08-03T02:54:46.005Z,42.47
2022-08-03T02:57:14.185Z,51.10
2022-08-03T02:59:42.670Z,44.80
2022-08-03T03:02:10.213Z,40.45
2022-08-03T03:04:37.239Z,42.35
2022-08-03T03:07:04.569Z,38.28
2022-08-03T03:09:40.177Z,43.15
2022-08-03T03:12:10.343Z,46.42
2022-08-03T03:14:38.235Z,44.85
2022-08-03T03:17:06.938Z,43.17
2022-08-03T03:19:34.706Z,40.97
2022-08-03T03:22:03.590Z,38.10
2022-08-03T03:24:30.835Z,38.53
2022-08-03T03:26:58.828Z,40.38
2022-08-03T03:29:25.948Z,39.65
2022-08-03T03:31:53.171Z,39.17
2022-08-03T03:34:20.247Z,43.58
2022-08-03T03:36:46.865Z,42.22
2022-08-03T03:39:15.142Z,43.47
2022-08-03T03:41:42.660Z,54.08
2022-08-03T03:44:09.344Z,43.55
2022-08-03T03:46:36.152Z,42.35
2022-08-03T03:49:02.860Z,49.72
2022-08-03T03:51:29.568Z,54.75
2022-08-03T03:54:00.984Z,42.20
2022-08-03T03:56:28.849Z,44.60
2022-08-03T03:58:56.435Z,53.40
2022-08-03T04:01:23.168Z,48.13
2022-08-03T04:03:49.974Z,48.92
2022-08-03T04:06:35.580Z,53.58
2022-08-03T04:09:21.056Z,42.20
2022-08-03T04:11:53.191Z,38.25
2022-08-03T04:14:33.642Z,41.45
2022-08-03T04:17:03.963Z,38.08
2022-08-03T04:19:35.948Z,47.35
2022-08-03T04:22:09.709Z,40.50
2022-08-03T04:24:44.727Z,37.28
2022-08-03T04:29:30.723Z,45.70
2022-08-03T04:31:58.725Z,45.40
2022-08-03T04:34:25.431Z,49.67
2022-08-03T04:36:59.128Z,34.15
2022-08-03T04:39:29.871Z,38.85
2022-08-03T04:42:07.294Z,37.28
2022-08-03T04:46:52.578Z,35.25
2022-08-03T04:49:21.743Z,54.97
2022-08-03T04:51:50.141Z,36.85
2022-08-03T04:54:17.017Z,38.35
2022-08-03T04:56:44.141Z,34.88
2022-08-03T04:59:11.417Z,34.30
2022-08-03T05:01:39.130Z,33.33
2022-08-03T05:04:05.800Z,32.00
2022-08-03T05:06:32.351Z,31.27
2022-08-03T05:08:58.985Z,29.33
2022-08-03T05:11:25.681Z,33.40
2022-08-03T05:13:52.403Z,25.38
2022-08-03T05:16:19.137Z,32.25
2022-08-03T05:18:46.055Z,27.77
2022-08-03T05:21:16.989Z,29.42
2022-08-03T05:23:44.439Z,31.30
2022-08-03T05:26:12.085Z,26.15
2022-08-03T05:28:39.047Z,28.67
2022-08-03T05:31:05.749Z,26.33
2022-08-03T05:33:32.573Z,29.77
2022-08-03T05:36:03.187Z,27.75
2022-08-03T05:38:34.217Z,29.17
2022-08-03T05:41:22.229Z,31.27
2022-08-03T05:43:52.465Z,31.98
2022-08-03T05:46:20.721Z,26.00
2022-08-03T05:48:47.308Z,28.25
2022-08-03T05:53:38.772Z,29.23
2022-08-03T05:56:13.908Z,28.40
2022-08-03T05:58:46.954Z,32.95
2022-08-03T06:03:41.158Z,29.42
2022-08-03T06:06:08.227Z,28.45
2022-08-03T06:08:35.321Z,31.38
2022-08-03T06:11:02.013Z,36.30
2022-08-03T06:13:28.589Z,31.92
2022-08-03T06:15:55.161Z,40.50
2022-08-03T06:18:21.857Z,36.92
2022-08-03T06:20:50.201Z,29.15
2022-08-03T06:23:17.772Z,26.38
2022-08-03T06:25:45.135Z,32.70
2022-08-03T06:28:35.284Z,28.98
2022-08-03T06:31:01.156Z,28.35
2022-08-03T06:34:30.488Z,27.40
2022-08-03T06:36:15.110Z,27.00
2022-08-03T06:38:41.873Z,27.13
2022-08-03T06:41:08.567Z,27.08
2022-08-03T06:43:37.809Z,30.13
2022-08-03T06:46:05.672Z,27.80
2022-08-03T06:48:32.772Z,28.30
2022-08-03T06:53:22.402Z,29.63
2022-08-03T06:55:54.200Z,28.65
2022-08-03T06:58:21.487Z,29.92
2022-08-03T07:00:48.108Z,28.00
2022-08-03T07:03:15.129Z,27.58
2022-08-03T07:05:42.685Z,26.88
2022-08-03T07:08:10.011Z,25.92
2022-08-03T07:10:37.025Z,25.48
2022-08-03T07:15:54.643Z,26.52
2022-08-03T07:18:10.034Z,28.75
2022-08-03T07:20:36.713Z,23.60
2022-08-03T07:23:03.382Z,25.50
2022-08-03T07:25:29.950Z,29.75
2022-08-03T07:27:56.597Z,25.42
2022-08-03T07:30:25.028Z,25.25
2022-08-03T07:32:51.613Z,24.85
2022-08-03T07:35:24.925Z,22.35
2022-08-03T07:37:54.543Z,23.92
2022-08-03T07:42:52.190Z,25.35
2022-08-03T07:45:23.278Z,26.10
2022-08-03T07:47:53.519Z,20.75
2022-08-03T07:50:21.314Z,19.15
2022-08-03T07:52:48.636Z,21.88
2022-08-03T07:55:20.027Z,23.30
2022-08-03T07:57:47.622Z,20.83
2022-08-03T08:00:17.722Z,20.13
2022-08-03T08:02:45.354Z,19.25
2022-08-03T08:05:12.557Z,19.00
2022-08-03T08:07:41.318Z,17.92
2022-08-03T08:10:10.198Z,18.38
2022-08-03T08:12:38.655Z,17.55
2022-08-03T08:15:06.193Z,18.83
2022-08-03T08:17:42.468Z,20.00
2022-08-03T08:20:10.852Z,21.75
2022-08-03T08:22:37.429Z,21.70
2022-08-03T08:25:06.985Z,21.42
2022-08-03T08:28:29.013Z,19.67
2022-08-03T08:32:37.880Z,21.33
2022-08-03T08:35:06.110Z,21.90
2022-08-03T08:37:32.807Z,22.25
2022-08-03T08:40:00.028Z,22.33
2022-08-03T08:42:27.073Z,19.20
2022-08-03T08:44:54.716Z,21.40
2022-08-03T08:47:26.253Z,20.17
2022-08-03T08:52:43.469Z,19.73
2022-08-03T08:55:13.919Z,20.08
2022-08-03T08:57:59.447Z,17.67
2022-08-03T09:00:26.147Z,19.02
2022-08-03T09:02:53.280Z,15.95
2022-08-03T09:05:31.490Z,14.88
2022-08-03T09:08:07.578Z,15.52
2022-08-03T09:10:34.831Z,20.27
2022-08-03T09:13:04.541Z,14.55
2022-08-03T09:15:33.588Z,15.80
2022-08-03T09:18:01.640Z,15.13
2022-08-03T09:20:30.793Z,14.85
2022-08-03T09:23:01.063Z,22.33
2022-08-03T09:25:39.426Z,14.20
2022-08-03T09:28:10.477Z,14.15
2022-08-03T09:30:39.918Z,14.77
2022-08-03T09:33:08.750Z,15.63
2022-08-03T09:35:58.497Z,14.10
2022-08-03T09:38:28.582Z,13.57
2022-08-03T09:41:00.109Z,15.20
2022-08-03T09:43:27.894Z,13.90
2022-08-03T09:46:03.962Z,16.70
2022-08-03T09:48:31.836Z,15.02
2022-08-03T09:51:13.439Z,17.67
2022-08-03T09:53:57.246Z,14.18
2022-08-03T09:56:41.578Z,14.02
2022-08-03T09:59:09.676Z,15.82
2022-08-03T10:01:37.377Z,14.00
2022-08-03T10:04:05.306Z,12.10
2022-08-03T10:06:32.380Z,11.20
2022-08-03T10:09:15.883Z,13.93
2022-08-03T10:11:44.544Z,11.43
2022-08-03T10:16:26.130Z,9.95
2022-08-03T10:18:52.926Z,9.80
2022-08-03T10:21:22.565Z,9.45
2022-08-03T10:23:50.909Z,12.23
2022-08-03T10:26:22.437Z,7.72
2022-08-03T10:28:53.297Z,11.18
2022-08-03T10:31:23.809Z,10.50
2022-08-03T10:33:53.359Z,9.68
2022-08-03T10:36:24.419Z,9.75
2022-08-03T10:38:53.128Z,8.93
2022-08-03T10:41:21.811Z,7.95
2022-08-03T10:44:08.033Z,6.32
2022-08-03T10:46:38.373Z,6.45
2022-08-03T10:49:09.151Z,7.03
2022-08-03T10:51:36.082Z,7.53
2022-08-03T10:54:02.714Z,7.88
2022-08-03T10:56:52.455Z,7.97
2022-08-03T10:59:46.131Z,6.95
2022-08-03T11:02:14.344Z,7.28
2022-08-03T11:04:41.940Z,5.35
2022-08-03T11:07:25.335Z,10.82
2022-08-03T11:09:56.522Z,9.40
2022-08-03T11:12:33.652Z,7.75
2022-08-03T11:15:06.428Z,6.38
2022-08-03T11:17:46.298Z,5.85
2022-08-03T11:20:44.311Z,8.82
2022-08-03T11:23:11.191Z,7.13
2022-08-03T11:26:13.299Z,7.18
2022-08-03T11:28:41.480Z,6.30
2022-08-03T11:31:48.219Z,7.88
2022-08-03T11:34:12.354Z,7.45
2022-08-03T11:37:22.500Z,7.07
2022-08-03T11:39:51.730Z,6.32
2022-08-03T11:42:24.497Z,6.45
2022-08-03T11:44:56.269Z,7.05
2022-08-03T11:47:24.495Z,4.90
2022-08-03T11:49:53.868Z,5.43
2022-08-03T11:52:27.097Z,5.55
2022-08-03T11:54:56.382Z,6.97
2022-08-03T11:59:12.869Z,6.43
2022-08-03T12:00:23.179Z,6.30
2022-08-03T12:03:04.005Z,5.53
2022-08-03T12:05:34.600Z,13.60
2022-08-03T12:08:04.150Z,3.80
2022-08-03T12:10:33.637Z,3.65
2022-08-03T12:13:02.261Z,5.53
2022-08-03T12:15:30.571Z,4.95
2022-08-03T12:17:58.206Z,4.25
2022-08-03T12:20:34.991Z,5.20
2022-08-03T12:23:04.831Z,5.50
2022-08-03T12:25:39.465Z,5.72
2022-08-03T12:28:35.963Z,5.88
2022-08-03T12:30:55.120Z,4.97
2022-08-03T12:33:23.642Z,4.57
2022-08-03T12:36:03.641Z,6.25
2022-08-03T12:38:32.597Z,4.38
2022-08-03T12:41:08.652Z,6.25
2022-08-03T12:43:37.681Z,6.43
2022-08-03T12:46:15.291Z,8.10
2022-08-03T12:49:11.298Z,6.50
2022-08-03T12:51:57.887Z,6.57
2022-08-03T12:54:27.985Z,6.30
2022-08-03T12:57:04.830Z,6.35
2022-08-03T12:59:41.218Z,5.25
2022-08-03T13:02:34.385Z,10.00
2022-08-03T13:05:13.677Z,5.55
2022-08-03T13:07:45.876Z,6.68
2022-08-03T13:10:27.992Z,7.80
2022-08-03T13:12:57.623Z,5.28
2022-08-03T13:15:26.534Z,4.43
2022-08-03T13:18:00.554Z,7.03
2022-08-03T13:20:27.112Z,8.05
2022-08-03T13:22:58.023Z,6.40
2022-08-03T13:25:27.654Z,7.50
2022-08-03T13:28:04.414Z,5.10
2022-08-03T13:30:32.280Z,9.95
2022-08-03T13:33:00.414Z,5.72
2022-08-03T13:35:27.255Z,5.63
2022-08-03T13:37:53.854Z,7.43
2022-08-03T13:40:23.649Z,5.55
2022-08-03T13:42:56.662Z,5.53
2022-08-03T13:45:24.278Z,5.60
2022-08-03T13:47:50.837Z,8.32
2022-08-03T13:50:17.411Z,8.20
2022-08-03T13:52:46.185Z,5.60
2022-08-03T13:55:13.112Z,11.65
2022-08-03T13:58:11.445Z,5.80
2022-08-03T14:00:29.596Z,7.30
2022-08-03T14:03:03.900Z,8.57
2022-08-03T14:05:34.126Z,5.65
2022-08-03T14:08:04.248Z,6.00
2022-08-03T14:10:36.159Z,8.52
2022-08-03T14:13:04.245Z,6.78
2022-08-03T14:15:31.157Z,6.80
2022-08-03T14:17:58.791Z,5.65
2022-08-03T14:20:38.984Z,5.93
2022-08-03T14:23:14.128Z,6.05
2022-08-03T14:25:43.272Z,5.85
2022-08-03T14:28:18.749Z,5.47
2022-08-03T14:30:46.132Z,6.95
2022-08-03T14:33:12.750Z,9.50
2022-08-03T14:35:39.347Z,6.57
2022-08-03T14:38:06.366Z,7.28
2022-08-03T14:40:33.050Z,9.05
2022-08-03T14:42:59.659Z,6.30
2022-08-03T14:45:26.236Z,7.18
2022-08-03T14:50:34.053Z,6.43
2022-08-03T14:50:44.361Z,8.07
2022-08-03T14:53:13.957Z,8.32
2022-08-03T14:55:49.985Z,7.25
2022-08-03T14:58:22.861Z,7.32
2022-08-03T15:00:51.109Z,7.78
2022-08-03T15:03:23.741Z,7.40
2022-08-03T15:05:55.635Z,6.63
2022-08-03T15:08:24.188Z,7.25
2022-08-03T15:10:53.503Z,6.72
2022-08-03T15:13:20.530Z,8.63
2022-08-03T15:15:48.080Z,7.50
2022-08-03T15:18:14.677Z,9.45
2022-08-03T15:20:46.239Z,6.60
2022-08-03T15:23:15.332Z,8.02
2022-08-03T15:26:28.246Z,9.18
2022-08-03T15:28:30.226Z,7.47
2022-08-03T15:30:57.127Z,6.95
2022-08-03T15:33:23.797Z,6.90
2022-08-03T15:35:50.436Z,11.88
2022-08-03T15:38:17.680Z,7.45
2022-08-03T15:40:44.436Z,7.45
2022-08-03T15:43:11.159Z,7.47
2022-08-03T15:45:37.794Z,7.60
2022-08-03T15:48:05.762Z,9.25
2022-08-03T15:50:32.454Z,9.70
2022-08-03T15:52:59.080Z,9.50
2022-08-03T15:55:25.777Z,9.65
2022-08-03T15:59:04.723Z,8.23
2022-08-03T16:00:40.346Z,9.00
2022-08-03T16:03:07.050Z,9.57
2022-08-03T16:05:33.931Z,11.35
2022-08-03T16:08:04.386Z,8.50
2022-08-03T16:10:32.598Z,9.60
2022-08-03T16:13:00.118Z,9.07
2022-08-03T16:15:27.712Z,7.80
2022-08-03T16:17:54.559Z,8.25
2022-08-03T16:20:31.463Z,10.25
2022-08-03T16:23:07.031Z,7.78
2022-08-03T16:25:42.273Z,11.05
2022-08-03T16:28:13.760Z,8.10
2022-08-03T16:30:42.914Z,10.15
2022-08-03T16:33:10.510Z,8.93
2022-08-03T16:35:37.281Z,7.63
2022-08-03T16:38:09.636Z,8.98
2022-08-03T16:40:37.431Z,8.38
2022-08-03T16:43:19.046Z,8.35
2022-08-03T16:45:47.058Z,9.52
2022-08-03T16:48:15.009Z,11.38
2022-08-03T16:50:44.910Z,9.48
2022-08-03T16:53:15.692Z,9.15
2022-08-03T16:55:53.978Z,8.07
2022-08-03T16:58:41.815Z,9.32
2022-08-03T17:01:24.189Z,8.57
2022-08-03T17:04:05.586Z,8.18
2022-08-03T17:06:44.626Z,8.63
2022-08-03T17:09:18.524Z,8.25
2022-08-03T17:11:47.719Z,10.35
2022-08-03T17:14:22.069Z,8.15
2022-08-03T17:16:53.031Z,7.93
2022-08-03T17:19:24.953Z,10.05
2022-08-03T17:24:36.920Z,9.27
2022-08-03T17:28:41.743Z,8.90
2022-08-03T17:30:09.801Z,10.68
2022-08-03T17:32:42.859Z,11.60
2022-08-03T17:35:20.862Z,13.00
2022-08-03T17:37:57.351Z,10.95
2022-08-03T17:40:25.680Z,15.23
2022-08-03T17:42:52.557Z,10.23
2022-08-03T17:45:20.343Z,10.63
2022-08-03T17:47:57.927Z,9.23
2022-08-03T17:50:37.053Z,10.00
2022-08-03T17:56:44.372Z,12.88
2022-08-03T17:59:52.479Z,13.82
2022-08-03T18:02:55.269Z,10.00
2022-08-03T18:06:10.468Z,10.18
2022-08-03T18:10:35.545Z,13.85
2022-08-03T18:13:10.453Z,10.20
2022-08-03T18:15:42.533Z,11.30
2022-08-03T18:18:13.280Z,12.55
2022-08-03T18:20:42.126Z,13.38
2022-08-03T18:23:25.062Z,11.45
2022-08-03T18:26:04.945Z,11.83
2022-08-03T18:28:34.876Z,10.30
2022-08-03T18:31:05.694Z,12.02
2022-08-03T18:34:19.466Z,11.77
2022-08-03T18:39:11.169Z,18.17
2022-08-03T18:41:41.070Z,15.73
2022-08-03T18:44:52.538Z,10.68
2022-08-03T18:47:21.078Z,10.98
2022-08-03T18:50:19.329Z,18.73
2022-08-03T18:53:02.658Z,13.32
2022-08-03T18:55:35.856Z,16.80
2022-08-03T18:58:15.906Z,18.38
2022-08-03T19:01:05.156Z,19.10
2022-08-03T19:03:56.304Z,12.63
2022-08-03T19:06:28.766Z,15.45
2022-08-03T19:12:12.396Z,13.20
2022-08-03T19:14:34.836Z,22.42
2022-08-03T19:17:09.676Z,15.75
2022-08-03T19:19:43.513Z,13.85
2022-08-03T19:22:15.821Z,13.98
2022-08-03T19:27:12.405Z,14.13
2022-08-03T19:29:59.328Z,19.05
2022-08-03T19:32:31.959Z,15.48
2022-08-03T19:35:00.832Z,15.43
2022-08-03T19:37:38.253Z,17.58
2022-08-03T19:40:10.677Z,14.55
2022-08-03T19:42:43.404Z,14.93
2022-08-03T19:45:15.443Z,16.63
2022-08-03T19:47:53.713Z,16.73
2022-08-03T19:50:20.836Z,16.20
2022-08-03T19:52:51.316Z,15.07
2022-08-03T19:55:18.252Z,17.10
2022-08-03T19:57:49.304Z,13.93
2022-08-03T20:00:19.428Z,16.33
2022-08-03T20:02:46.671Z,19.15
2022-08-03T20:05:15.403Z,16.23
2022-08-03T20:07:47.694Z,17.52
2022-08-03T20:10:31.618Z,22.25
2022-08-03T20:12:58.525Z,20.65
2022-08-03T20:15:31.526Z,20.60
2022-08-03T20:17:59.560Z,17.08
2022-08-03T20:20:30.863Z,17.77
2022-08-03T20:22:59.265Z,18.45
2022-08-03T20:25:38.125Z,18.17
2022-08-03T20:28:13.972Z,21.08
2022-08-03T20:30:46.307Z,16.10
2022-08-03T20:36:00.808Z,22.85
2022-08-03T20:38:27.474Z,21.27
2022-08-03T20:40:54.426Z,19.88
2022-08-03T20:43:24.092Z,19.98
2022-08-03T20:45:58.430Z,18.65
2022-08-03T20:48:37.445Z,21.95
2022-08-03T20:51:06.010Z,22.80
2022-08-03T20:53:59.809Z,22.58
2022-08-03T20:56:36.164Z,21.55
2022-08-03T20:59:05.635Z,27.30
2022-08-03T21:01:36.123Z,24.88
2022-08-03T21:04:09.466Z,22.48
2022-08-03T21:06:45.627Z,22.38
2022-08-03T21:09:23.404Z,24.25
2022-08-03T21:11:52.132Z,32.00
2022-08-03T21:12:55.594Z,9.93
2022-08-03T21:13:04.224Z,11.52
2022-08-03T21:13:13.218Z,28.13
2022-08-03T21:14:50.352Z,22.58
2022-08-03T21:17:39.196Z,24.50
2022-08-03T21:20:08.854Z,25.25
2022-08-03T21:22:37.985Z,23.05
2022-08-03T21:25:09.211Z,23.33
2022-08-03T21:27:37.116Z,21.75
2022-08-03T21:30:09.345Z,24.95
2022-08-03T21:32:40.427Z,23.67
2022-08-03T21:35:10.677Z,22.23
2022-08-03T21:37:38.915Z,24.20
2022-08-03T21:40:07.678Z,26.92
2022-08-03T21:42:34.317Z,28.45
2022-08-03T21:45:05.416Z,21.90
2022-08-03T21:47:36.922Z,27.93
2022-08-03T21:50:09.926Z,29.00
2022-08-03T21:52:47.327Z,22.60
2022-08-03T21:55:18.640Z,26.05
2022-08-03T21:57:52.924Z,24.92
2022-08-03T22:02:39.131Z,29.13
2022-08-03T22:05:09.920Z,28.85
2022-08-03T22:07:43.252Z,26.65
2022-08-03T22:10:10.622Z,28.95
2022-08-03T22:12:37.829Z,27.15
2022-08-03T22:15:08.687Z,28.15
2022-08-03T22:19:59.342Z,27.80
2022-08-03T22:22:28.413Z,29.42
2022-08-03T22:27:32.132Z,24.85
2022-08-03T22:29:59.777Z,29.42
2022-08-03T22:32:28.557Z,28.55
2022-08-03T22:34:57.208Z,26.52
2022-08-03T22:37:30.877Z,32.05
2022-08-03T22:39:59.675Z,30.10
2022-08-03T22:42:29.899Z,27.17
2022-08-03T22:44:56.625Z,25.45
2022-08-03T22:47:24.232Z,32.70
2022-08-03T22:50:32.530Z,32.13
2022-08-03T22:52:43.637Z,28.92
2022-08-03T22:55:12.995Z,26.92
2022-08-03T22:57:55.566Z,28.70
2022-08-03T23:00:23.226Z,25.73
2022-08-03T23:02:51.719Z,32.03
2022-08-03T23:06:00.692Z,29.60
2022-08-03T23:08:14.629Z,35.72
2022-08-03T23:10:47.164Z,32.55
2022-08-03T23:13:16.997Z,31.48
2022-08-03T23:15:57.801Z,30.42
2022-08-03T23:18:31.179Z,31.70
2022-08-03T23:21:02.563Z,32.10
2022-08-03T23:23:43.907Z,30.42
2022-08-03T23:26:12.151Z,35.35
2022-08-03T23:28:39.822Z,30.73
2022-08-03T23:31:08.167Z,27.48
2022-08-03T23:33:38.392Z,29.77
2022-08-03T23:36:29.738Z,26.60
2022-08-03T23:38:54.211Z,29.95
2022-08-03T23:41:22.073Z,28.00
2022-08-03T23:43:51.784Z,31.65
2022-08-03T23:48:51.309Z,28.67
2022-08-03T23:51:36.329Z,31.58
2022-08-03T23:54:10.131Z,28.70
2022-08-03T23:57:13.150Z,24.60
